createdAt,value
2024-02-29T00:00:13.385Z,6.10
2024-02-29T00:02:41.596Z,5.22
2024-02-29T00:05:12.983Z,5.25
2024-02-29T00:07:41.441Z,5.20
2024-02-29T00:10:10.221Z,5.15
2024-02-29T00:12:39.989Z,5.03
2024-02-29T00:15:08.334Z,4.40
2024-02-29T00:17:39.150Z,4.72
2024-02-29T00:20:10.618Z,5.25
2024-02-29T00:22:39.034Z,5.40
2024-02-29T00:25:07.308Z,5.78
2024-02-29T00:27:35.183Z,4.45
2024-02-29T00:30:02.941Z,4.90
2024-02-29T00:32:31.039Z,5.50
2024-02-29T00:34:58.911Z,5.00
2024-02-29T00:37:26.597Z,4.85
2024-02-29T00:39:54.387Z,5.00
2024-02-29T00:42:22.108Z,4.50
2024-02-29T00:44:49.849Z,4.38
2024-02-29T00:47:17.539Z,4.82
2024-02-29T00:49:45.239Z,4.57
2024-02-29T00:52:13.024Z,4.40
2024-02-29T00:54:40.901Z,4.43
2024-02-29T00:57:08.884Z,4.50
2024-02-29T00:59:37.010Z,4.35
2024-02-29T01:02:05.497Z,4.63
2024-02-29T01:04:33.243Z,4.30
2024-02-29T01:07:01.036Z,4.20
2024-02-29T01:09:29.012Z,4.88
2024-02-29T01:11:56.928Z,4.10
2024-02-29T01:14:24.869Z,4.18
2024-02-29T01:16:55.199Z,4.13
2024-02-29T01:19:23.106Z,4.68
2024-02-29T01:21:53.282Z,5.15
2024-02-29T01:24:21.098Z,3.40
2024-02-29T01:26:48.749Z,4.15
2024-02-29T01:29:16.548Z,4.22
2024-02-29T01:31:44.335Z,3.70
2024-02-29T01:34:12.472Z,4.05
2024-02-29T01:36:40.316Z,4.00
2024-02-29T01:39:08.009Z,3.63
2024-02-29T01:41:35.800Z,3.35
2024-02-29T01:44:03.512Z,3.65
2024-02-29T01:46:31.445Z,3.90
2024-02-29T01:49:00.248Z,4.20
2024-02-29T01:51:29.213Z,4.30
2024-02-29T01:53:56.910Z,4.10
2024-02-29T01:56:25.845Z,3.92
2024-02-29T01:58:58.067Z,4.57
2024-02-29T02:01:26.413Z,3.85
2024-02-29T02:03:54.281Z,3.80
2024-02-29T02:06:22.062Z,4.03
2024-02-29T02:08:50.172Z,4.95
2024-02-29T02:11:18.049Z,3.45
2024-02-29T02:13:45.871Z,3.47
2024-02-29T02:16:13.940Z,3.47
2024-02-29T02:18:41.758Z,4.22
2024-02-29T02:21:09.560Z,3.30
2024-02-29T02:23:37.301Z,3.75
2024-02-29T02:26:05.130Z,4.03
2024-02-29T02:28:32.836Z,3.90
2024-02-29T02:31:00.604Z,4.45
2024-02-29T02:33:28.400Z,4.22
2024-02-29T02:35:57.118Z,3.25
2024-02-29T02:38:24.827Z,3.58
2024-02-29T02:40:52.626Z,3.75
2024-02-29T02:43:20.308Z,3.53
2024-02-29T02:45:48.070Z,3.60
2024-02-29T02:48:15.789Z,3.65
2024-02-29T02:50:43.660Z,3.30
2024-02-29T02:53:11.454Z,3.28
2024-02-29T02:55:39.221Z,3.28
2024-02-29T02:58:07.008Z,3.05
2024-02-29T03:00:35.342Z,3.03
2024-02-29T03:03:03.237Z,4.43
2024-02-29T03:05:30.993Z,2.80
2024-02-29T03:07:59.124Z,4.22
2024-02-29T03:10:29.673Z,2.70
2024-02-29T03:13:00.381Z,2.78
2024-02-29T03:15:28.741Z,3.22
2024-02-29T03:17:57.434Z,3.10
2024-02-29T03:20:25.259Z,2.35
2024-02-29T03:22:52.950Z,2.83
2024-02-29T03:25:21.346Z,2.78
2024-02-29T03:27:49.782Z,3.10
2024-02-29T03:30:18.419Z,3.40
2024-02-29T03:32:46.163Z,3.00
2024-02-29T03:35:13.953Z,2.80
2024-02-29T03:37:41.816Z,3.17
2024-02-29T03:40:10.094Z,2.80
2024-02-29T03:42:40.096Z,3.33
2024-02-29T03:45:09.318Z,2.53
2024-02-29T03:47:37.605Z,2.83
2024-02-29T03:50:06.204Z,3.45
2024-02-29T03:52:33.916Z,2.63
2024-02-29T03:55:04.368Z,3.08
2024-02-29T03:57:32.122Z,2.33
2024-02-29T03:59:59.922Z,2.80
2024-02-29T04:02:27.632Z,2.58
2024-02-29T04:04:55.844Z,3.17
2024-02-29T04:07:23.631Z,3.22
2024-02-29T04:09:55.960Z,3.10
2024-02-29T04:12:23.919Z,2.70
2024-02-29T04:14:51.620Z,2.80
2024-02-29T04:17:19.413Z,2.85
2024-02-29T04:19:47.276Z,2.97
2024-02-29T04:22:16.172Z,3.08
2024-02-29T04:24:44.194Z,2.78
2024-02-29T04:27:11.987Z,2.72
2024-02-29T04:29:39.701Z,3.20
2024-02-29T04:32:08.467Z,3.08
2024-02-29T04:34:36.211Z,3.30
2024-02-29T04:37:04.399Z,3.17
2024-02-29T04:39:32.281Z,3.00
2024-02-29T04:41:59.970Z,3.03
2024-02-29T04:44:27.681Z,3.60
2024-02-29T04:46:56.366Z,3.25
2024-02-29T04:49:24.072Z,2.95
2024-02-29T04:51:51.954Z,3.05
2024-02-29T04:54:19.695Z,2.67
2024-02-29T04:56:47.911Z,3.75
2024-02-29T04:59:15.576Z,3.08
2024-02-29T05:01:43.594Z,3.10
2024-02-29T05:04:11.499Z,3.25
2024-02-29T05:06:39.295Z,3.30
2024-02-29T05:09:07.893Z,3.70
2024-02-29T05:11:37.954Z,3.67
2024-02-29T05:14:07.401Z,3.15
2024-02-29T05:16:35.159Z,3.55
2024-02-29T05:19:03.086Z,3.95
2024-02-29T05:21:30.825Z,4.65
2024-02-29T05:23:58.555Z,5.28
2024-02-29T05:26:26.303Z,4.97
2024-02-29T05:28:59.827Z,4.50
2024-02-29T05:31:27.509Z,5.47
2024-02-29T05:33:55.256Z,4.78
2024-02-29T05:36:24.249Z,5.07
2024-02-29T05:38:52.021Z,5.25
2024-02-29T05:41:20.095Z,5.57
2024-02-29T05:43:49.285Z,5.32
2024-02-29T05:46:17.139Z,5.30
2024-02-29T05:48:45.041Z,5.38
2024-02-29T05:51:13.172Z,5.28
2024-02-29T05:53:50.002Z,4.85
2024-02-29T05:56:17.811Z,4.95
2024-02-29T05:58:48.314Z,4.78
2024-02-29T06:01:41.949Z,4.25
2024-02-29T06:04:11.350Z,4.70
2024-02-29T06:06:39.213Z,3.60
2024-02-29T06:09:07.171Z,3.55
2024-02-29T06:11:34.930Z,2.60
2024-02-29T06:14:03.835Z,2.85
2024-02-29T06:16:31.641Z,2.65
2024-02-29T06:18:59.797Z,2.58
2024-02-29T06:21:27.560Z,2.40
2024-02-29T06:23:55.532Z,2.75
2024-02-29T06:26:23.445Z,2.38
2024-02-29T06:28:51.294Z,2.30
2024-02-29T06:31:22.298Z,2.30
2024-02-29T06:33:50.405Z,2.50
2024-02-29T06:36:18.154Z,2.63
2024-02-29T06:38:45.824Z,2.40
2024-02-29T06:41:13.577Z,2.80
2024-02-29T06:43:41.316Z,2.40
2024-02-29T06:46:11.736Z,3.17
2024-02-29T06:48:42.560Z,3.30
2024-02-29T06:51:10.316Z,2.90
2024-02-29T06:53:38.022Z,2.70
2024-02-29T06:56:05.878Z,2.92
2024-02-29T06:58:35.801Z,2.67
2024-02-29T07:01:05.488Z,2.80
2024-02-29T07:03:33.538Z,3.13
2024-02-29T07:06:01.377Z,2.83
2024-02-29T07:08:29.129Z,3.00
2024-02-29T07:10:58.303Z,2.33
2024-02-29T07:13:27.719Z,3.00
2024-02-29T07:15:56.311Z,2.45
2024-02-29T07:18:25.607Z,2.47
2024-02-29T07:20:53.340Z,2.47
2024-02-29T07:23:21.170Z,3.45
2024-02-29T07:25:48.889Z,3.25
2024-02-29T07:28:16.736Z,2.92
2024-02-29T07:30:44.689Z,3.60
2024-02-29T07:33:12.688Z,3.70
2024-02-29T07:35:40.488Z,3.20
2024-02-29T07:38:08.204Z,2.90
2024-02-29T07:40:35.975Z,4.40
2024-02-29T07:43:03.926Z,3.17
2024-02-29T07:45:31.670Z,3.53
2024-02-29T07:48:00.967Z,3.67
2024-02-29T07:50:28.865Z,3.45
2024-02-29T07:52:56.596Z,3.60
2024-02-29T07:55:24.335Z,3.95
2024-02-29T07:57:52.117Z,4.00
2024-02-29T08:00:20.055Z,3.40
2024-02-29T08:02:48.213Z,3.22
2024-02-29T08:06:06.168Z,3.25
2024-02-29T08:08:33.942Z,3.22
2024-02-29T08:11:01.658Z,3.90
2024-02-29T08:13:29.413Z,3.85
2024-02-29T08:15:57.337Z,4.55
2024-02-29T08:18:27.812Z,4.15
2024-02-29T08:20:55.600Z,4.38
2024-02-29T08:23:23.320Z,4.25
2024-02-29T08:25:54.905Z,3.85
2024-02-29T08:30:50.796Z,4.43
2024-02-29T08:33:19.299Z,4.65
2024-02-29T08:35:48.689Z,5.15
2024-02-29T08:38:17.653Z,4.85
2024-02-29T08:40:45.508Z,4.80
2024-02-29T08:43:13.267Z,3.83
2024-02-29T08:45:41.376Z,4.78
2024-02-29T08:48:09.183Z,4.22
2024-02-29T08:50:36.914Z,3.60
2024-02-29T08:53:04.870Z,3.70
2024-02-29T08:55:33.002Z,2.78
2024-02-29T08:58:00.839Z,3.42
2024-02-29T09:00:28.529Z,3.63
2024-02-29T09:02:56.275Z,3.35
2024-02-29T09:05:24.853Z,3.67
2024-02-29T09:07:52.675Z,3.22
2024-02-29T09:10:20.468Z,4.20
2024-02-29T09:12:48.334Z,3.28
2024-02-29T09:15:18.747Z,3.30
2024-02-29T09:17:46.751Z,3.22
2024-02-29T09:20:14.483Z,3.17
2024-02-29T09:22:42.241Z,3.40
2024-02-29T09:25:11.419Z,3.67
2024-02-29T09:27:39.658Z,3.10
2024-02-29T09:30:07.695Z,3.70
2024-02-29T09:32:35.595Z,4.10
2024-02-29T09:35:08.064Z,3.70
2024-02-29T09:37:35.972Z,3.45
2024-02-29T09:40:05.552Z,3.15
2024-02-29T09:42:34.482Z,3.45
2024-02-29T09:45:02.934Z,3.33
2024-02-29T09:47:32.565Z,2.90
2024-02-29T09:50:04.923Z,3.25
2024-02-29T09:52:37.783Z,3.55
2024-02-29T09:55:08.066Z,3.00
2024-02-29T09:57:37.902Z,3.88
2024-02-29T10:00:11.950Z,3.15
2024-02-29T10:02:43.799Z,3.10
2024-02-29T10:05:12.213Z,3.65
2024-02-29T10:07:48.995Z,3.67
2024-02-29T10:10:18.267Z,3.75
2024-02-29T10:12:55.143Z,2.80
2024-02-29T10:15:27.308Z,3.63
2024-02-29T10:17:57.085Z,3.88
2024-02-29T10:20:26.362Z,4.55
2024-02-29T10:22:54.418Z,3.70
2024-02-29T10:25:22.976Z,3.38
2024-02-29T10:27:50.777Z,3.75
2024-02-29T10:30:19.933Z,3.97
2024-02-29T10:32:48.109Z,4.38
2024-02-29T10:35:27.691Z,3.25
2024-02-29T10:37:56.755Z,3.63
2024-02-29T10:40:26.093Z,3.80
2024-02-29T10:42:58.004Z,3.45
2024-02-29T10:45:27.910Z,3.88
2024-02-29T10:48:06.906Z,4.13
2024-02-29T10:50:49.196Z,3.50
2024-02-29T10:53:31.793Z,4.15
2024-02-29T10:56:08.017Z,3.70
2024-02-29T10:58:43.810Z,4.78
